Portada
METAR-TAF:

METAR-TAF

Aeroports :

Làrnaca, Xipre

latitud: 34-53N, longitud: 033-38E, altitud: 2 m

Observació

L'informe es va fer fa 24 minuts, a les 11:30 UTC
Vent 10 kt del Sud
Temperatura 31°C
Humitat 59%
Pressió 1011 hPa
Visibilitat 10 km o més
sense núvols per sota de 1500 mi sense presència de cumulonimbus.

METAR: LCLK 251130Z 19010KT CAVOK 31/22 Q1011 NOSIG

Hora: 14:54 (11:54 UTC)

Pronòstic

L'informe es va fer fa 6 hores i 24 minuts, a les 05:30 UTC
Pronòstic vàlid del 25 a les 06 UTC al 26 a les 06 UTC
Vent 7 kt del Nord-Est
Visibilitat 10 km o més
Escasses núvols a una alçada de 3000 ft
Evolucionant progressivament
l' 25 a les 09 UTC al 25 a les 12 UTC
Vent 15 kt del Sud/Sud-Oest
Evolucionant progressivament
l' 25 a les 17 UTC al 25 a les 20 UTC
Vent 7 kt del Nord-Oest

TAF: LCLK 250530Z 2506/2606 04007KT 9999 FEW030 BECMG 2509/2512 20015KT BECMG 2517/2520 31007KT

Observacions i pronòstics meteorològics de més de 4000 aeroports (METAR i TAF).

Les estacions disponibles són els punts grocs i vermells al mapa.

Posi el ratolí al punt desitjat per veure el nom de l'estació.

Feu clic per veure les observacions i els pronòstics meteorològics.

Per canviar el mapa: feu clic els botons verds amb una creu de color negre per apropar; al botó verd amb un guió per allunyar la imatge; o en les fletxes verdes per a mapes adjacents.


METAR-TAF: